South Miami Heights, Florida
Current Conditions -  °F | °C
As of 11:53 AM on Friday 19 Dec 2014 (Local Time) from KTMB Reporting Station
Few Clouds Few Clouds  
Wind Chill: 76°   Ceiling: Unl
Heat Index: 76°   Visibility: 10mi
Dew Point: 60°   Wind: 7mph
Humidity: 58%   Direction: 80°E
Pressure: 30.09"   Gusts: NA
Location:  25.6064°N, 80.3427°W
Report Text: KTMB 191653Z 08006KT 10SM FEW035 24/16 A3009 RMK AO2 SLP188 T02440156
Loading
Personal Weather Stations






























Interactive Weather Map New forecast layout! Learn more

10-Day Weather Forecast

Advertisements
Track Severe Weather on mobile